createdAt,value
2018-03-16T04:28:34.884Z,4.70
2018-03-16T04:31:04.805Z,4.72
2018-03-16T04:33:34.422Z,4.77
2018-03-16T04:36:04.274Z,4.79
2018-03-16T04:38:33.728Z,4.84
2018-03-16T04:41:03.615Z,4.86
2018-03-16T04:43:33.082Z,4.87
2018-03-16T04:46:02.725Z,4.92
2018-03-16T04:48:32.186Z,4.88
2018-03-16T04:51:01.644Z,4.86
2018-03-16T04:53:31.106Z,4.93
2018-03-16T04:56:00.542Z,4.94
2018-03-16T04:58:29.982Z,4.93
2018-03-16T05:00:59.833Z,4.99
2018-03-16T05:03:29.353Z,4.97
2018-03-16T05:05:58.798Z,5.03
2018-03-16T05:08:28.662Z,5.05
2018-03-16T05:10:58.183Z,5.08
2018-03-16T05:13:27.640Z,5.14
2018-03-16T05:15:57.482Z,5.23
2018-03-16T05:18:26.761Z,5.32
2018-03-16T05:20:56.231Z,5.47
2018-03-16T05:23:26.161Z,5.51
2018-03-16T05:25:56.002Z,5.52
2018-03-16T05:28:25.446Z,5.54
2018-03-16T05:30:54.894Z,5.50
2018-03-16T05:33:24.747Z,5.50
2018-03-16T05:35:54.448Z,5.44
2018-03-16T05:38:23.902Z,5.34
2018-03-16T05:40:53.423Z,5.36
2018-03-16T05:43:23.246Z,5.33
2018-03-16T05:45:52.698Z,5.30
2018-03-16T05:48:22.158Z,5.39
2018-03-16T05:50:51.604Z,5.45
2018-03-16T05:53:21.063Z,5.47
2018-03-16T05:55:50.556Z,5.52
2018-03-16T05:58:20.398Z,5.55
2018-03-16T06:00:49.899Z,5.67
2018-03-16T06:03:19.492Z,5.75
2018-03-16T06:05:48.937Z,5.63
2018-03-16T06:08:18.396Z,5.81
2018-03-16T06:10:48.256Z,5.86
2018-03-16T06:13:17.725Z,5.91
2018-03-16T06:15:47.176Z,5.95
2018-03-16T06:18:19.082Z,6.00
2018-03-16T06:20:48.936Z,5.98
2018-03-16T06:23:18.404Z,6.12
2018-03-16T06:25:48.250Z,6.08
2018-03-16T06:28:17.723Z,5.92
2018-03-16T06:30:47.173Z,6.14
2018-03-16T06:33:16.656Z,6.28
2018-03-16T06:35:46.115Z,6.41
2018-03-16T06:38:15.981Z,6.54
2018-03-16T06:40:45.422Z,6.64
2018-03-16T06:43:14.927Z,6.70
2018-03-16T06:45:44.572Z,6.75
2018-03-16T06:48:14.026Z,6.80
2018-03-16T06:50:43.676Z,6.73
2018-03-16T06:53:13.530Z,6.77
2018-03-16T06:55:42.991Z,6.84
2018-03-16T06:58:12.850Z,6.83
2018-03-16T07:00:42.328Z,6.74
2018-03-16T07:03:11.788Z,6.81
2018-03-16T07:05:41.234Z,6.90
2018-03-16T07:08:10.729Z,7.07
2018-03-16T07:10:40.807Z,7.13
2018-03-16T07:13:10.289Z,7.19
2018-03-16T07:15:39.754Z,7.23
2018-03-16T07:18:09.868Z,7.38
2018-03-16T07:20:39.734Z,7.40
2018-03-16T07:23:09.188Z,7.45
2018-03-16T07:25:39.050Z,7.35
2018-03-16T07:28:08.676Z,7.29
2018-03-16T07:30:38.130Z,7.29
2018-03-16T07:33:07.576Z,7.35
2018-03-16T07:35:37.051Z,7.35
2018-03-16T07:38:07.316Z,7.28
2018-03-16T07:40:37.161Z,7.34
2018-03-16T07:43:07.001Z,7.30
2018-03-16T07:45:41.861Z,7.34
2018-03-16T07:48:11.340Z,7.42
2018-03-16T07:50:40.777Z,7.43
2018-03-16T07:53:10.239Z,7.48
2018-03-16T07:55:39.700Z,7.52
2018-03-16T07:58:09.303Z,7.57
2018-03-16T08:00:38.769Z,7.59
2018-03-16T08:03:08.449Z,7.62
2018-03-16T08:05:38.328Z,7.74
2018-03-16T08:08:07.777Z,7.93
2018-03-16T08:10:37.639Z,8.04
2018-03-16T08:13:07.328Z,8.01
2018-03-16T08:15:36.786Z,7.90
2018-03-16T08:18:06.151Z,7.88
2018-03-16T08:20:35.599Z,8.02
2018-03-16T08:23:05.442Z,8.13
2018-03-16T08:25:35.117Z,8.16
2018-03-16T08:28:05.045Z,8.16
2018-03-16T08:30:34.654Z,8.09
2018-03-16T08:33:04.769Z,8.38
2018-03-16T08:35:34.614Z,8.46
2018-03-16T08:38:04.063Z,8.56
2018-03-16T08:40:33.549Z,8.64
2018-03-16T08:43:03.001Z,8.64
2018-03-16T08:45:32.857Z,8.62
2018-03-16T08:48:02.327Z,8.86
2018-03-16T08:50:31.774Z,8.91
2018-03-16T08:53:01.047Z,9.09
2018-03-16T08:55:30.555Z,9.30
2018-03-16T08:58:00.165Z,9.36
2018-03-16T09:00:29.605Z,9.21
2018-03-16T09:02:59.067Z,9.22
2018-03-16T09:05:28.527Z,9.38
2018-03-16T09:07:58.173Z,9.50
2018-03-16T09:10:27.619Z,9.60
2018-03-16T09:12:57.075Z,9.64
2018-03-16T09:15:26.525Z,9.70
2018-03-16T09:17:55.967Z,9.73
2018-03-16T09:20:25.799Z,9.71
2018-03-16T09:22:55.235Z,9.79
2018-03-16T09:25:24.687Z,9.78
2018-03-16T09:27:54.519Z,9.77
2018-03-16T09:30:23.956Z,9.71
2018-03-16T09:32:53.401Z,9.66
2018-03-16T09:35:23.280Z,9.63
2018-03-16T09:37:52.932Z,9.51
2018-03-16T09:40:22.771Z,9.59
2018-03-16T09:42:52.030Z,9.80
2018-03-16T09:45:21.484Z,10.04
2018-03-16T09:47:50.921Z,10.08
2018-03-16T09:50:20.381Z,10.38
2018-03-16T09:52:49.840Z,10.53
2018-03-16T09:58:27.277Z,10.77
2018-03-16T10:00:57.119Z,10.94
2018-03-16T10:03:26.560Z,11.08
2018-03-16T10:05:56.034Z,11.28
2018-03-16T10:08:25.515Z,11.14
2018-03-16T10:10:55.013Z,11.10
2018-03-16T10:13:24.873Z,11.14
2018-03-16T10:15:54.398Z,11.21
2018-03-16T10:18:23.842Z,11.45
2018-03-16T10:20:53.691Z,11.71
2018-03-16T10:23:23.145Z,11.82
2018-03-16T10:25:52.985Z,11.90
2018-03-16T10:28:22.438Z,12.09
2018-03-16T10:30:51.905Z,12.02
2018-03-16T10:33:21.543Z,11.87
2018-03-16T10:35:50.991Z,12.27
2018-03-16T10:38:20.833Z,12.33
2018-03-16T10:40:50.281Z,12.12
2018-03-16T10:43:19.731Z,12.13
2018-03-16T10:45:49.182Z,12.23
2018-03-16T10:48:18.638Z,11.97
2018-03-16T10:50:48.105Z,11.97
2018-03-16T10:53:17.540Z,11.80
2018-03-16T10:55:46.999Z,11.78
2018-03-16T10:58:16.655Z,11.44
2018-03-16T11:00:51.587Z,11.21
2018-03-16T11:03:21.432Z,10.95
2018-03-16T11:05:54.723Z,10.73
2018-03-16T11:08:29.459Z,10.78
2018-03-16T11:10:59.092Z,11.03
2018-03-16T11:13:28.819Z,11.03
2018-03-16T11:15:58.685Z,11.03
2018-03-16T11:18:28.211Z,10.90
2018-03-16T11:20:57.695Z,10.83
2018-03-16T11:23:27.164Z,10.89
2018-03-16T11:25:57.211Z,10.90
2018-03-16T11:28:26.667Z,10.98
2018-03-16T11:30:56.127Z,11.07
2018-03-16T11:33:25.581Z,10.95
2018-03-16T11:35:55.517Z,11.00
2018-03-16T11:38:25.571Z,10.90
2018-03-16T11:40:55.057Z,10.90
2018-03-16T11:43:24.724Z,10.95
2018-03-16T11:45:54.607Z,10.79
2018-03-16T11:48:24.052Z,10.76
2018-03-16T11:50:53.917Z,10.70
2018-03-16T11:53:23.391Z,10.61
2018-03-16T11:55:52.847Z,10.55
2018-03-16T11:58:22.293Z,10.58
2018-03-16T12:00:51.773Z,10.75
2018-03-16T12:03:21.219Z,10.83
2018-03-16T12:05:50.477Z,10.97
2018-03-16T12:08:19.951Z,11.13
2018-03-16T12:10:49.467Z,11.23
2018-03-16T12:13:19.113Z,11.15
2018-03-16T12:15:48.963Z,11.36
2018-03-16T12:18:19.326Z,11.56
2018-03-16T12:20:48.777Z,11.78
2018-03-16T12:23:18.224Z,11.84
2018-03-16T12:25:47.675Z,12.12
2018-03-16T12:28:16.559Z,12.14
2018-03-16T12:30:46.433Z,12.17
2018-03-16T12:33:15.878Z,12.21
2018-03-16T12:35:45.730Z,12.23
2018-03-16T12:38:15.210Z,12.15
2018-03-16T12:40:44.869Z,12.07
2018-03-16T12:43:14.371Z,12.08
2018-03-16T12:45:44.009Z,11.92
2018-03-16T12:48:13.855Z,11.91
2018-03-16T12:50:43.317Z,12.10
2018-03-16T12:53:12.769Z,12.19
2018-03-16T12:55:42.230Z,12.40
2018-03-16T12:58:11.677Z,12.49
2018-03-16T13:00:41.131Z,12.54
2018-03-16T13:03:10.598Z,12.36
2018-03-16T13:05:40.055Z,12.73
2018-03-16T13:08:09.181Z,12.90
2018-03-16T13:10:38.619Z,12.95
2018-03-16T13:13:08.115Z,13.05
2018-03-16T13:15:37.582Z,13.28
2018-03-16T13:18:07.428Z,13.26
2018-03-16T13:20:36.879Z,13.27
2018-03-16T13:23:06.537Z,13.10
2018-03-16T13:25:35.995Z,12.94
2018-03-16T13:28:05.841Z,12.77
2018-03-16T13:30:35.892Z,12.91
2018-03-16T13:33:05.134Z,13.00
2018-03-16T13:35:34.782Z,12.92
2018-03-16T13:38:04.272Z,12.84
2018-03-16T13:40:33.734Z,12.97
2018-03-16T13:43:03.188Z,13.05
2018-03-16T13:45:32.406Z,13.03
2018-03-16T13:48:01.860Z,12.89
2018-03-16T13:50:31.521Z,12.59
2018-03-16T13:53:01.057Z,12.64
2018-03-16T13:55:30.506Z,13.00
2018-03-16T13:57:59.950Z,13.09
2018-03-16T14:00:29.418Z,13.49
2018-03-16T14:02:58.878Z,13.67
2018-03-16T14:05:28.320Z,13.90
2018-03-16T14:07:57.794Z,14.02
2018-03-16T14:10:27.656Z,14.05
2018-03-16T14:12:57.128Z,14.07
2018-03-16T14:15:26.990Z,13.83
2018-03-16T14:17:56.441Z,13.66
2018-03-16T14:20:26.298Z,13.54
2018-03-16T14:22:55.931Z,13.15
2018-03-16T14:25:25.404Z,12.80
2018-03-16T14:27:54.904Z,12.90
2018-03-16T14:30:24.935Z,13.33
2018-03-16T14:32:54.220Z,13.63
2018-03-16T14:35:23.875Z,13.78
2018-03-16T14:37:53.437Z,14.02
2018-03-16T14:40:22.898Z,13.92
2018-03-16T14:42:52.622Z,13.79
2018-03-16T14:45:22.471Z,13.79
2018-03-16T14:47:51.928Z,13.81
2018-03-16T14:50:21.802Z,13.93
2018-03-16T14:52:51.470Z,13.90
2018-03-16T14:55:21.319Z,14.02
2018-03-16T14:57:50.784Z,14.01
2018-03-16T15:00:20.660Z,13.92
2018-03-16T15:02:50.110Z,13.73
2018-03-16T15:05:19.577Z,13.66
2018-03-16T15:07:49.055Z,13.50
2018-03-16T15:10:18.520Z,13.49
2018-03-16T15:12:48.378Z,13.54
2018-03-16T15:15:17.826Z,13.77
2018-03-16T15:17:47.663Z,13.85
2018-03-16T15:20:17.156Z,13.83
2018-03-16T15:22:47.007Z,13.73
2018-03-16T15:25:16.974Z,13.60
2018-03-16T15:27:46.848Z,13.38
2018-03-16T15:30:16.315Z,13.18
2018-03-16T15:32:45.787Z,12.95
2018-03-16T15:35:15.672Z,12.73
2018-03-16T15:37:45.120Z,12.61
2018-03-16T15:40:14.980Z,12.54
2018-03-16T15:42:44.436Z,12.48
2018-03-16T15:45:14.279Z,12.28
2018-03-16T15:47:44.580Z,12.22
2018-03-16T15:50:14.482Z,12.12
2018-03-16T15:52:44.952Z,12.14
2018-03-16T15:55:14.458Z,12.25
2018-03-16T15:57:44.074Z,12.37
2018-03-16T16:00:13.532Z,12.41
2018-03-16T16:02:43.378Z,12.33
2018-03-16T16:05:12.864Z,12.39
2018-03-16T16:07:42.734Z,12.51
2018-03-16T16:10:12.402Z,12.60
2018-03-16T16:12:41.862Z,12.62
2018-03-16T16:15:11.353Z,12.72
2018-03-16T16:17:41.006Z,12.73
2018-03-16T16:20:10.875Z,12.64
2018-03-16T16:22:40.337Z,12.39
2018-03-16T16:25:09.808Z,12.31
2018-03-16T16:27:39.924Z,12.36
2018-03-16T16:30:09.402Z,12.42
2018-03-16T16:32:38.888Z,12.32
2018-03-16T16:35:08.342Z,12.34
2018-03-16T16:37:37.801Z,12.25
2018-03-16T16:40:06.940Z,12.16
2018-03-16T16:42:36.388Z,12.20
2018-03-16T16:45:05.581Z,12.09
2018-03-16T16:47:35.628Z,11.81
2018-03-16T16:50:04.822Z,11.81
2018-03-16T16:52:34.599Z,11.75
2018-03-16T16:55:04.183Z,11.71
2018-03-16T16:57:33.724Z,11.63
2018-03-16T17:00:03.184Z,11.55
2018-03-16T17:02:32.674Z,11.39
2018-03-16T17:05:02.134Z,11.34
2018-03-16T17:07:31.604Z,11.29
2018-03-16T17:10:00.874Z,11.32
2018-03-16T17:12:30.542Z,11.30
2018-03-16T17:15:00.390Z,11.24
2018-03-16T17:17:29.858Z,11.23
2018-03-16T17:19:59.970Z,11.17
2018-03-16T17:22:29.854Z,11.10
2018-03-16T17:24:59.503Z,11.04
2018-03-16T17:27:29.389Z,10.98
2018-03-16T17:29:59.040Z,10.95
2018-03-16T17:32:28.486Z,10.95
2018-03-16T17:34:57.966Z,10.82
2018-03-16T17:37:27.734Z,10.69
2018-03-16T17:39:57.592Z,10.49
2018-03-16T17:42:27.054Z,10.30
2018-03-16T17:44:56.904Z,10.24
2018-03-16T17:47:26.342Z,10.11
2018-03-16T17:49:55.798Z,9.96
2018-03-16T17:52:25.440Z,9.84
2018-03-16T17:54:54.939Z,9.74
2018-03-16T17:57:24.938Z,9.73
2018-03-16T17:59:54.372Z,9.70
2018-03-16T18:02:23.817Z,9.65
2018-03-16T18:04:53.660Z,9.53
2018-03-16T18:07:23.338Z,9.46
2018-03-16T18:09:53.193Z,9.44
2018-03-16T18:12:22.649Z,9.55
2018-03-16T18:14:52.110Z,9.62
2018-03-16T18:17:21.872Z,9.59
2018-03-16T18:19:51.721Z,9.46
2018-03-16T18:22:21.193Z,9.46
2018-03-16T18:24:51.033Z,9.42
2018-03-16T18:27:20.488Z,9.44
2018-03-16T18:29:49.751Z,9.38
2018-03-16T18:32:19.020Z,9.34
2018-03-16T18:34:48.872Z,9.29
2018-03-16T18:37:18.319Z,9.29
2018-03-16T18:39:48.173Z,9.36
2018-03-16T18:42:17.620Z,9.18
2018-03-16T18:44:47.088Z,9.12
2018-03-16T18:47:16.549Z,8.99
2018-03-16T18:49:46.397Z,8.92
2018-03-16T18:52:15.901Z,8.81
2018-03-16T18:54:45.499Z,8.73
2018-03-16T18:57:14.936Z,8.61
2018-03-16T18:59:44.396Z,8.56
2018-03-16T19:02:14.250Z,8.71
2018-03-16T19:04:43.723Z,8.67
2018-03-16T19:07:13.183Z,8.55
2018-03-16T19:09:42.640Z,8.56
2018-03-16T19:12:12.286Z,8.48
2018-03-16T19:14:41.729Z,8.49
2018-03-16T19:17:11.782Z,8.27
2018-03-16T19:19:41.235Z,8.39
2018-03-16T19:22:10.691Z,8.23
2018-03-16T19:24:40.153Z,8.12
2018-03-16T19:27:09.791Z,7.96
2018-03-16T19:29:39.245Z,7.97
2018-03-16T19:32:08.693Z,8.02
2018-03-16T19:34:38.157Z,7.84
2018-03-16T19:37:07.621Z,7.63
2018-03-16T19:39:37.271Z,7.71
2018-03-16T19:42:06.721Z,7.71
2018-03-16T19:44:36.193Z,7.98
2018-03-16T19:47:05.312Z,7.70
2018-03-16T19:49:35.161Z,7.65
2018-03-16T19:52:04.609Z,7.62
2018-03-16T19:54:34.098Z,7.71
2018-03-16T19:57:03.693Z,7.71
2018-03-16T19:59:32.959Z,7.55
2018-03-16T20:02:02.413Z,7.62
2018-03-16T20:04:31.885Z,7.57
2018-03-16T20:07:01.575Z,7.35
2018-03-16T20:09:31.051Z,7.42
2018-03-16T20:12:00.898Z,7.56
2018-03-16T20:14:30.348Z,7.32
2018-03-16T20:16:59.801Z,7.27
2018-03-16T20:19:29.235Z,7.25
2018-03-16T20:21:58.679Z,7.40
2018-03-16T20:24:28.533Z,7.30
2018-03-16T20:26:57.973Z,7.24
2018-03-16T20:29:27.427Z,7.29
2018-03-16T20:31:56.885Z,7.10
2018-03-16T20:34:26.331Z,7.17
2018-03-16T20:36:55.806Z,7.07
2018-03-16T20:39:25.427Z,6.98
2018-03-16T20:41:55.280Z,6.95
2018-03-16T20:44:24.780Z,6.92
2018-03-16T20:46:54.215Z,6.90
2018-03-16T20:49:23.667Z,6.89
2018-03-16T20:51:53.511Z,6.99
2018-03-16T20:54:22.965Z,7.09
2018-03-16T20:56:52.421Z,7.14
2018-03-16T20:59:21.849Z,7.12
2018-03-16T21:01:51.303Z,7.12
2018-03-16T21:04:20.739Z,6.84
2018-03-16T21:06:50.191Z,6.71
2018-03-16T21:09:20.050Z,6.59
2018-03-16T21:11:49.695Z,6.41
2018-03-16T21:14:19.135Z,6.36
2018-03-16T21:16:48.585Z,6.42
2018-03-16T21:19:18.041Z,6.57
2018-03-16T21:21:47.887Z,6.39
2018-03-16T21:24:17.358Z,6.18
2018-03-16T21:26:47.192Z,6.26
2018-03-16T21:29:16.631Z,6.52
2018-03-16T21:31:46.100Z,6.38
2018-03-16T21:34:15.539Z,6.36
2018-03-16T21:36:44.981Z,6.32
2018-03-16T21:39:14.835Z,6.33
2018-03-16T21:41:44.301Z,6.34
2018-03-16T21:44:14.339Z,6.34
2018-03-16T21:46:43.795Z,6.36
2018-03-16T21:49:13.235Z,6.27
2018-03-16T21:51:43.107Z,6.30
2018-03-16T21:54:12.551Z,6.27
2018-03-16T21:56:42.405Z,6.26
2018-03-16T21:59:11.885Z,6.19
2018-03-16T22:01:41.341Z,6.28
2018-03-16T22:04:10.786Z,6.40
2018-03-16T22:06:40.247Z,6.30
2018-03-16T22:09:09.712Z,6.28
2018-03-16T22:11:39.161Z,6.28
2018-03-16T22:14:08.615Z,6.23
2018-03-16T22:16:38.083Z,6.07
2018-03-16T22:19:07.517Z,6.19
2018-03-16T22:21:36.958Z,6.13
2018-03-16T22:24:06.412Z,6.20
2018-03-16T22:26:36.265Z,6.18
2018-03-16T22:29:05.897Z,6.18
2018-03-16T22:31:35.342Z,6.10
2018-03-16T22:34:05.007Z,6.04
2018-03-16T22:36:34.479Z,6.03
2018-03-16T22:39:03.497Z,6.17
2018-03-16T22:41:32.286Z,6.19
2018-03-16T22:44:01.736Z,6.13
2018-03-16T22:46:31.587Z,6.19
2018-03-16T22:49:01.051Z,6.06
2018-03-16T22:51:30.891Z,6.13
2018-03-16T22:54:00.333Z,5.96
2018-03-16T22:56:29.891Z,5.90
2018-03-16T22:58:59.607Z,5.78
2018-03-16T23:01:29.057Z,5.75
2018-03-16T23:03:58.505Z,5.72
2018-03-16T23:06:28.335Z,5.65
2018-03-16T23:08:57.809Z,5.61
2018-03-16T23:11:27.653Z,5.62
2018-03-16T23:13:57.132Z,5.51
2018-03-16T23:16:27.181Z,5.31
2018-03-16T23:18:56.656Z,5.21
2018-03-16T23:21:26.531Z,5.16
2018-03-16T23:23:55.995Z,4.97
2018-03-16T23:26:25.447Z,5.02
2018-03-16T23:28:54.917Z,4.97
2018-03-16T23:31:24.379Z,4.83
2018-03-16T23:33:54.263Z,4.93
2018-03-16T23:36:23.753Z,4.96
2018-03-16T23:38:53.187Z,5.04
2018-03-16T23:41:22.646Z,5.11
2018-03-16T23:43:52.121Z,5.12
2018-03-16T23:46:21.993Z,5.17
2018-03-16T23:48:51.447Z,5.16
2018-03-16T23:51:21.287Z,5.23
2018-03-16T23:53:50.731Z,5.28
2018-03-16T23:56:20.177Z,5.40
2018-03-16T23:58:49.625Z,5.38
